sensor_id;sensor_type;location;lat;lon;timestamp;pressure;altitude;pressure_sealevel;temperature;humidity
44825;BME280;30542;47.928;2.138;2023-04-01T00:04:51;99442.19;;;19.26;49.04
44825;BME280;30542;47.928;2.138;2023-04-01T00:09:51;99441.66;;;19.24;48.97
44825;BME280;30542;47.928;2.138;2023-04-01T00:14:52;99452.34;;;19.24;48.60
44825;BME280;30542;47.928;2.138;2023-04-01T00:19:55;99442.00;;;19.17;49.08
44825;BME280;30542;47.928;2.138;2023-04-01T00:24:55;99456.94;;;19.18;49.24
44825;BME280;30542;47.928;2.138;2023-04-01T00:29:56;99449.72;;;19.19;49.21
44825;BME280;30542;47.928;2.138;2023-04-01T00:34:56;99447.34;;;19.17;49.22
44825;BME280;30542;47.928;2.138;2023-04-01T00:39:59;99456.13;;;19.18;48.83
44825;BME280;30542;47.928;2.138;2023-04-01T00:45:30;99459.09;;;19.16;49.08
44825;BME280;30542;47.928;2.138;2023-04-01T00:50:33;99458.56;;;19.14;48.88
44825;BME280;30542;47.928;2.138;2023-04-01T00:55:37;99457.75;;;19.13;49.18
44825;BME280;30542;47.928;2.138;2023-04-01T01:00:39;99451.09;;;19.11;48.85
44825;BME280;30542;47.928;2.138;2023-04-01T01:10:52;99466.31;;;19.10;49.07
44825;BME280;30542;47.928;2.138;2023-04-01T01:15:58;99470.56;;;19.11;48.96
44825;BME280;30542;47.928;2.138;2023-04-01T01:32:06;99471.41;;;19.07;48.77
44825;BME280;30542;47.928;2.138;2023-04-01T01:37:13;99469.03;;;19.05;48.81
44825;BME280;30542;47.928;2.138;2023-04-01T01:42:17;99469.81;;;19.06;48.75
44825;BME280;30542;47.928;2.138;2023-04-01T01:47:19;99465.28;;;19.06;48.89
44825;BME280;30542;47.928;2.138;2023-04-01T01:52:24;99469.59;;;19.02;48.68
44825;BME280;30542;47.928;2.138;2023-04-01T01:57:30;99474.66;;;19.04;48.81
44825;BME280;30542;47.928;2.138;2023-04-01T02:02:31;99472.25;;;19.02;48.82
44825;BME280;30542;47.928;2.138;2023-04-01T02:07:33;99476.00;;;19.01;48.48
44825;BME280;30542;47.928;2.138;2023-04-01T02:12:37;99466.94;;;18.97;48.66
44825;BME280;30542;47.928;2.138;2023-04-01T02:17:42;99476.56;;;18.98;48.79
44825;BME280;30542;47.928;2.138;2023-04-01T02:22:47;99467.25;;;18.96;48.72
44825;BME280;30542;47.928;2.138;2023-04-01T02:27:49;99455.53;;;18.92;48.81
44825;BME280;30542;47.928;2.138;2023-04-01T02:32:49;99470.16;;;18.94;48.66
44825;BME280;30542;47.928;2.138;2023-04-01T02:37:51;99482.44;;;18.95;48.49
44825;BME280;30542;47.928;2.138;2023-04-01T02:42:52;99480.59;;;18.96;48.68
44825;BME280;30542;47.928;2.138;2023-04-01T02:47:53;99483.25;;;18.96;48.59
44825;BME280;30542;47.928;2.138;2023-04-01T02:52:53;99481.94;;;18.93;48.67
44825;BME280;30542;47.928;2.138;2023-04-01T02:57:53;99480.34;;;18.92;48.18
44825;BME280;30542;47.928;2.138;2023-04-01T03:02:54;99493.94;;;18.91;48.38
44825;BME280;30542;47.928;2.138;2023-04-01T03:07:55;99500.09;;;18.91;48.37
44825;BME280;30542;47.928;2.138;2023-04-01T03:12:55;99492.34;;;18.90;48.21
44825;BME280;30542;47.928;2.138;2023-04-01T03:17:55;99494.22;;;18.89;48.74
44825;BME280;30542;47.928;2.138;2023-04-01T03:22:56;99496.66;;;18.85;48.59
44825;BME280;30542;47.928;2.138;2023-04-01T03:27:56;99507.59;;;18.84;48.73
44825;BME280;30542;47.928;2.138;2023-04-01T03:32:59;99524.69;;;18.83;48.44
44825;BME280;30542;47.928;2.138;2023-04-01T03:38:00;99515.06;;;18.82;48.69
44825;BME280;30542;47.928;2.138;2023-04-01T03:43:00;99524.16;;;18.81;48.75
44825;BME280;30542;47.928;2.138;2023-04-01T03:48:01;99517.22;;;18.80;48.52
44825;BME280;30542;47.928;2.138;2023-04-01T03:53:01;99519.59;;;18.81;48.39
44825;BME280;30542;47.928;2.138;2023-04-01T03:58:02;99517.22;;;18.80;48.20
44825;BME280;30542;47.928;2.138;2023-04-01T04:03:03;99515.13;;;18.72;48.35
44825;BME280;30542;47.928;2.138;2023-04-01T04:08:03;99526.31;;;18.79;48.31
44825;BME280;30542;47.928;2.138;2023-04-01T04:13:04;99524.69;;;18.78;48.63
44825;BME280;30542;47.928;2.138;2023-04-01T04:18:04;99525.25;;;18.75;48.12
44825;BME280;30542;47.928;2.138;2023-04-01T04:23:04;99524.44;;;18.74;48.70
44825;BME280;30542;47.928;2.138;2023-04-01T04:28:05;99530.84;;;18.73;48.31
44825;BME280;30542;47.928;2.138;2023-04-01T04:33:05;99535.09;;;18.74;48.60
44825;BME280;30542;47.928;2.138;2023-04-01T04:38:05;99531.66;;;18.74;48.48
44825;BME280;30542;47.928;2.138;2023-04-01T04:43:06;99535.09;;;18.74;48.65
44825;BME280;30542;47.928;2.138;2023-04-01T04:48:08;99530.59;;;18.75;48.42
44825;BME280;30542;47.928;2.138;2023-04-01T04:53:10;99532.72;;;18.73;48.64
44825;BME280;30542;47.928;2.138;2023-04-01T04:58:10;99530.59;;;18.75;48.65
44825;BME280;30542;47.928;2.138;2023-04-01T05:03:11;99535.91;;;18.80;48.93
44825;BME280;30542;47.928;2.138;2023-04-01T05:08:12;99530.53;;;18.85;48.49
44825;BME280;30542;47.928;2.138;2023-04-01T05:13:12;99527.84;;;18.90;48.69
44825;BME280;30542;47.928;2.138;2023-04-01T05:18:13;99535.81;;;18.95;48.48
44825;BME280;30542;47.928;2.138;2023-04-01T05:23:16;99537.41;;;18.96;48.56
44825;BME280;30542;47.928;2.138;2023-04-01T05:28:16;99544.34;;;18.97;48.33
44825;BME280;30542;47.928;2.138;2023-04-01T05:33:17;99534.25;;;18.89;48.45
44825;BME280;30542;47.928;2.138;2023-04-01T05:38:17;99560.34;;;18.97;48.35
44825;BME280;30542;47.928;2.138;2023-04-01T05:43:17;99556.34;;;18.95;48.47
44825;BME280;30542;47.928;2.138;2023-04-01T05:48:18;99552.63;;;18.96;48.78
44825;BME280;30542;47.928;2.138;2023-04-01T05:53:19;99562.50;;;18.95;48.67
44825;BME280;30542;47.928;2.138;2023-04-01T05:58:19;99557.97;;;18.96;48.94
44825;BME280;30542;47.928;2.138;2023-04-01T06:03:20;99563.56;;;18.94;49.01
44825;BME280;30542;47.928;2.138;2023-04-01T06:08:20;99571.81;;;18.98;48.83
44825;BME280;30542;47.928;2.138;2023-04-01T06:45:51;99613.94;;;19.06;48.71
44825;BME280;30542;47.928;2.138;2023-04-01T06:56:18;99620.09;;;19.06;48.52
44825;BME280;30542;47.928;2.138;2023-04-01T07:01:45;99618.50;;;19.05;48.74
44825;BME280;30542;47.928;2.138;2023-04-01T07:06:51;99628.88;;;19.07;48.64
44825;BME280;30542;47.928;2.138;2023-04-01T07:11:56;99643.03;;;19.07;49.22
44825;BME280;30542;47.928;2.138;2023-04-01T07:17:33;99633.97;;;19.08;49.89
44825;BME280;30542;47.928;2.138;2023-04-01T07:22:41;99638.78;;;19.06;50.26
44825;BME280;30542;47.928;2.138;2023-04-01T07:27:45;99638.78;;;19.06;50.45
44825;BME280;30542;47.928;2.138;2023-04-01T07:43:53;99644.66;;;19.08;49.66
44825;BME280;30542;47.928;2.138;2023-04-01T08:00:48;99653.19;;;19.05;49.03
44825;BME280;30542;47.928;2.138;2023-04-01T08:05:55;99649.72;;;19.05;48.99
44825;BME280;30542;47.928;2.138;2023-04-01T08:11:03;99647.03;;;19.10;49.30
44825;BME280;30542;47.928;2.138;2023-04-01T08:21:21;99648.63;;;19.16;50.27
44825;BME280;30542;47.928;2.138;2023-04-01T08:26:37;99637.38;;;19.19;50.30
44825;BME280;30542;47.928;2.138;2023-04-01T08:37:00;99654.44;;;19.23;50.44
44825;BME280;30542;47.928;2.138;2023-04-01T08:42:15;99643.50;;;19.25;50.48
44825;BME280;30542;47.928;2.138;2023-04-01T08:57:55;99633.59;;;19.30;51.00
44825;BME280;30542;47.928;2.138;2023-04-01T09:13:45;99652.56;;;19.29;50.36
44825;BME280;30542;47.928;2.138;2023-04-01T09:18:59;99651.72;;;19.28;50.52
44825;BME280;30542;47.928;2.138;2023-04-01T09:40:35;99664.03;;;19.29;50.52
44825;BME280;30542;47.928;2.138;2023-04-01T09:56:44;99665.91;;;19.24;50.31
44825;BME280;30542;47.928;2.138;2023-04-01T10:08:01;99664.84;;;19.25;50.56
44825;BME280;30542;47.928;2.138;2023-04-01T10:12:58;99650.97;;;19.23;50.51
44825;BME280;30542;47.928;2.138;2023-04-01T10:29:06;99661.63;;;19.28;50.01
44825;BME280;30542;47.928;2.138;2023-04-01T10:56:39;99627.94;;;19.37;49.78
44825;BME280;30542;47.928;2.138;2023-04-01T11:33:28;99604.66;;;19.43;49.53
44825;BME280;30542;47.928;2.138;2023-04-01T11:55:01;99586.47;;;19.45;49.60
44825;BME280;30542;47.928;2.138;2023-04-01T12:16:55;99592.31;;;19.52;49.57
44825;BME280;30542;47.928;2.138;2023-04-01T12:27:34;99576.03;;;19.48;49.72
44825;BME280;30542;47.928;2.138;2023-04-01T12:32:40;99577.09;;;19.52;49.62
44825;BME280;30542;47.928;2.138;2023-04-01T13:16:23;99575.00;;;19.44;49.40
44825;BME280;30542;47.928;2.138;2023-04-01T13:27:34;99562.97;;;19.47;49.32
44825;BME280;30542;47.928;2.138;2023-04-01T13:32:47;99564.84;;;19.46;49.19
44825;BME280;30542;47.928;2.138;2023-04-01T13:37:58;99568.63;;;19.45;49.40
44825;BME280;30542;47.928;2.138;2023-04-01T13:43:22;99567.00;;;19.44;49.43
44825;BME280;30542;47.928;2.138;2023-04-01T14:04:47;99569.41;;;19.46;49.48
44825;BME280;30542;47.928;2.138;2023-04-01T14:15:32;99567.78;;;19.50;49.17
44825;BME280;30542;47.928;2.138;2023-04-01T14:20:39;99571.78;;;19.47;48.95
44825;BME280;30542;47.928;2.138;2023-04-01T14:25:46;99588.91;;;19.46;49.13
44825;BME280;30542;47.928;2.138;2023-04-01T14:52:24;99607.38;;;19.37;49.32
44825;BME280;30542;47.928;2.138;2023-04-01T14:57:29;99603.91;;;19.37;49.40
44825;BME280;30542;47.928;2.138;2023-04-01T15:03:06;99603.63;;;19.38;49.72
44825;BME280;30542;47.928;2.138;2023-04-01T15:40:07;99650.03;;;19.48;52.54
44825;BME280;30542;47.928;2.138;2023-04-01T15:55:31;99651.34;;;19.55;53.73
44825;BME280;30542;47.928;2.138;2023-04-01T16:06:14;99646.28;;;19.49;54.18
44825;BME280;30542;47.928;2.138;2023-04-01T16:11:33;99655.13;;;19.49;53.83
44825;BME280;30542;47.928;2.138;2023-04-01T16:27:07;99697.03;;;19.49;53.71
44825;BME280;30542;47.928;2.138;2023-04-01T16:32:21;99679.69;;;19.46;53.67
44825;BME280;30542;47.928;2.138;2023-04-01T16:37:36;99693.31;;;19.45;53.58
44825;BME280;30542;47.928;2.138;2023-04-01T16:42:56;99686.66;;;19.42;53.50
44825;BME280;30542;47.928;2.138;2023-04-01T16:48:14;99702.16;;;19.40;52.56
44825;BME280;30542;47.928;2.138;2023-04-01T16:53:21;99700.84;;;19.32;51.69
44825;BME280;30542;47.928;2.138;2023-04-01T16:58:27;99701.09;;;19.36;51.50
44825;BME280;30542;47.928;2.138;2023-04-01T17:03:43;99697.38;;;19.37;51.16
44825;BME280;30542;47.928;2.138;2023-04-01T17:09:08;99690.16;;;19.32;51.07
44825;BME280;30542;47.928;2.138;2023-04-01T17:25:20;99719.78;;;19.36;54.71
44825;BME280;30542;47.928;2.138;2023-04-01T17:40:40;99748.13;;;19.37;55.27
44825;BME280;30542;47.928;2.138;2023-04-01T17:45:54;99755.31;;;19.36;55.39
44825;BME280;30542;47.928;2.138;2023-04-01T17:51:09;99762.53;;;19.36;54.82
44825;BME280;30542;47.928;2.138;2023-04-01T17:56:30;99771.31;;;19.36;54.55
44825;BME280;30542;47.928;2.138;2023-04-01T18:02:01;99786.03;;;19.34;54.33
44825;BME280;30542;47.928;2.138;2023-04-01T18:07:30;99789.75;;;19.38;54.09
44825;BME280;30542;47.928;2.138;2023-04-01T18:23:13;99821.28;;;19.36;53.87
44825;BME280;30542;47.928;2.138;2023-04-01T18:33:21;99843.97;;;19.38;53.35
44825;BME280;30542;47.928;2.138;2023-04-01T18:38:31;99857.03;;;19.40;53.33
44825;BME280;30542;47.928;2.138;2023-04-01T18:49:21;99883.47;;;19.36;53.29
44825;BME280;30542;47.928;2.138;2023-04-01T19:05:24;99917.41;;;19.31;53.36
44825;BME280;30542;47.928;2.138;2023-04-01T19:16:04;99929.97;;;19.30;53.26
44825;BME280;30542;47.928;2.138;2023-04-01T19:38:02;99948.13;;;19.28;53.16
44825;BME280;30542;47.928;2.138;2023-04-01T19:48:55;99957.19;;;19.32;52.96
44825;BME280;30542;47.928;2.138;2023-04-01T19:54:12;99951.06;;;19.32;52.53
44825;BME280;30542;47.928;2.138;2023-04-01T19:59:18;99961.72;;;19.32;52.59
44825;BME280;30542;47.928;2.138;2023-04-01T20:14:54;99975.88;;;19.32;52.38
44825;BME280;30542;47.928;2.138;2023-04-01T20:25:12;99990.59;;;19.30;52.00
44825;BME280;30542;47.928;2.138;2023-04-01T20:35:44;100003.94;;;19.25;52.02
44825;BME280;30542;47.928;2.138;2023-04-01T20:40:51;100010.09;;;19.25;52.09
44825;BME280;30542;47.928;2.138;2023-04-01T20:45:59;100011.16;;;19.29;51.83
44825;BME280;30542;47.928;2.138;2023-04-01T20:51:53;100020.22;;;19.28;51.63
44825;BME280;30542;47.928;2.138;2023-04-01T21:07:55;100024.47;;;19.19;51.84
44825;BME280;30542;47.928;2.138;2023-04-01T21:34:30;100047.72;;;19.19;52.17
44825;BME280;30542;47.928;2.138;2023-04-01T21:50:55;100071.75;;;19.19;52.56
44825;BME280;30542;47.928;2.138;2023-04-01T22:07:15;100094.16;;;19.18;52.38
44825;BME280;30542;47.928;2.138;2023-04-01T22:28:46;100115.25;;;19.14;52.20
44825;BME280;30542;47.928;2.138;2023-04-01T22:33:56;100112.59;;;19.14;51.70
44825;BME280;30542;47.928;2.138;2023-04-01T22:49:42;100126.16;;;19.07;51.98
44825;BME280;30542;47.928;2.138;2023-04-01T22:54:50;100128.31;;;19.05;51.91
44825;BME280;30542;47.928;2.138;2023-04-01T22:59:57;100138.19;;;19.05;52.22
44825;BME280;30542;47.928;2.138;2023-04-01T23:05:02;100134.72;;;19.04;51.75
44825;BME280;30542;47.928;2.138;2023-04-01T23:10:05;100142.16;;;19.02;52.09
44825;BME280;30542;47.928;2.138;2023-04-01T23:15:12;100148.31;;;19.03;52.11
44825;BME280;30542;47.928;2.138;2023-04-01T23:20:26;100151.25;;;19.01;52.02
44825;BME280;30542;47.928;2.138;2023-04-01T23:26:14;100151.50;;;19.00;51.76
44825;BME280;30542;47.928;2.138;2023-04-01T23:36:31;100158.97;;;18.98;51.62
44825;BME280;30542;47.928;2.138;2023-04-01T23:41:38;100162.44;;;18.98;51.77
44825;BME280;30542;47.928;2.138;2023-04-01T23:46:40;100169.38;;;18.99;51.53
44825;BME280;30542;47.928;2.138;2023-04-01T23:51:53;100175.50;;;18.95;51.71
44825;BME280;30542;47.928;2.138;2023-04-01T23:56:55;100181.38;;;18.97;51.60
